sensor_id;sensor_type;location;lat;lon;timestamp;P1;durP1;ratioP1;P2;durP2;ratioP2
27706;SDS011;36332;51.384;0.040;2024-01-11T00:01:28;54.97;;;28.55;;
27706;SDS011;36332;51.384;0.040;2024-01-11T00:04:16;51.72;;;28.42;;
27706;SDS011;36332;51.384;0.040;2024-01-11T00:07:46;51.28;;;25.73;;
27706;SDS011;36332;51.384;0.040;2024-01-11T00:10:20;42.87;;;22.83;;
27706;SDS011;36332;51.384;0.040;2024-01-11T00:13:06;47.05;;;20.67;;
27706;SDS011;36332;51.384;0.040;2024-01-11T00:15:51;46.40;;;20.63;;
27706;SDS011;36332;51.384;0.040;2024-01-11T00:18:24;54.03;;;20.23;;
27706;SDS011;36332;51.384;0.040;2024-01-11T00:21:01;52.83;;;19.77;;
27706;SDS011;36332;51.384;0.040;2024-01-11T00:30:20;42.05;;;15.30;;
27706;SDS011;36332;51.384;0.040;2024-01-11T00:32:57;35.78;;;15.10;;
27706;SDS011;36332;51.384;0.040;2024-01-11T00:35:35;42.70;;;15.02;;
27706;SDS011;36332;51.384;0.040;2024-01-11T00:38:23;46.83;;;16.40;;
27706;SDS011;36332;51.384;0.040;2024-01-11T00:41:22;38.63;;;14.10;;
27706;SDS011;36332;51.384;0.040;2024-01-11T00:47:45;35.83;;;12.10;;
27706;SDS011;36332;51.384;0.040;2024-01-11T00:50:26;36.75;;;13.02;;
27706;SDS011;36332;51.384;0.040;2024-01-11T00:53:33;27.17;;;12.07;;
27706;SDS011;36332;51.384;0.040;2024-01-11T00:56:05;39.75;;;12.38;;
27706;SDS011;36332;51.384;0.040;2024-01-11T00:59:08;29.05;;;12.55;;
27706;SDS011;36332;51.384;0.040;2024-01-11T01:05:03;35.25;;;11.80;;
27706;SDS011;36332;51.384;0.040;2024-01-11T01:11:20;38.38;;;12.43;;
27706;SDS011;36332;51.384;0.040;2024-01-11T01:14:02;32.47;;;11.95;;
27706;SDS011;36332;51.384;0.040;2024-01-11T01:16:42;29.42;;;11.93;;
27706;SDS011;36332;51.384;0.040;2024-01-11T01:19:30;38.45;;;12.52;;
27706;SDS011;36332;51.384;0.040;2024-01-11T01:22:06;31.25;;;11.77;;
27706;SDS011;36332;51.384;0.040;2024-01-11T01:30:49;24.45;;;10.90;;
27706;SDS011;36332;51.384;0.040;2024-01-11T01:36:26;26.40;;;11.43;;
27706;SDS011;36332;51.384;0.040;2024-01-11T01:38:58;24.93;;;9.23;;
27706;SDS011;36332;51.384;0.040;2024-01-11T01:41:32;39.50;;;12.02;;
27706;SDS011;36332;51.384;0.040;2024-01-11T01:44:13;33.05;;;12.57;;
27706;SDS011;36332;51.384;0.040;2024-01-11T01:47:04;39.83;;;12.93;;
27706;SDS011;36332;51.384;0.040;2024-01-11T01:49:44;30.93;;;11.73;;
27706;SDS011;36332;51.384;0.040;2024-01-11T01:52:47;25.05;;;10.80;;
27706;SDS011;36332;51.384;0.040;2024-01-11T01:55:27;26.73;;;10.63;;
27706;SDS011;36332;51.384;0.040;2024-01-11T01:58:08;33.67;;;11.88;;
27706;SDS011;36332;51.384;0.040;2024-01-11T02:24:20;26.05;;;11.82;;
27706;SDS011;36332;51.384;0.040;2024-01-11T02:26:57;33.90;;;13.05;;
27706;SDS011;36332;51.384;0.040;2024-01-11T02:29:50;33.25;;;13.50;;
27706;SDS011;36332;51.384;0.040;2024-01-11T02:32:33;38.75;;;13.05;;
27706;SDS011;36332;51.384;0.040;2024-01-11T02:38:02;27.60;;;12.10;;
27706;SDS011;36332;51.384;0.040;2024-01-11T02:40:37;32.70;;;12.48;;
27706;SDS011;36332;51.384;0.040;2024-01-11T02:43:09;42.50;;;11.85;;
27706;SDS011;36332;51.384;0.040;2024-01-11T02:48:50;32.28;;;11.88;;
27706;SDS011;36332;51.384;0.040;2024-01-11T02:51:24;36.28;;;12.60;;
27706;SDS011;36332;51.384;0.040;2024-01-11T03:02:41;48.40;;;15.23;;
27706;SDS011;36332;51.384;0.040;2024-01-11T03:08:13;26.70;;;12.05;;
27706;SDS011;36332;51.384;0.040;2024-01-11T03:10:43;32.42;;;11.63;;
27706;SDS011;36332;51.384;0.040;2024-01-11T03:13:13;41.38;;;13.05;;
27706;SDS011;36332;51.384;0.040;2024-01-11T03:15:45;41.35;;;13.52;;
27706;SDS011;36332;51.384;0.040;2024-01-11T03:18:18;27.90;;;12.18;;
27706;SDS011;36332;51.384;0.040;2024-01-11T03:20:48;35.15;;;15.30;;
27706;SDS011;36332;51.384;0.040;2024-01-11T03:23:23;35.13;;;13.85;;
27706;SDS011;36332;51.384;0.040;2024-01-11T03:25:57;30.25;;;12.65;;
27706;SDS011;36332;51.384;0.040;2024-01-11T03:41:33;25.50;;;12.07;;
27706;SDS011;36332;51.384;0.040;2024-01-11T03:44:06;31.48;;;14.48;;
27706;SDS011;36332;51.384;0.040;2024-01-11T03:46:37;34.78;;;13.40;;
27706;SDS011;36332;51.384;0.040;2024-01-11T03:49:07;34.03;;;13.35;;
27706;SDS011;36332;51.384;0.040;2024-01-11T03:51:38;33.53;;;12.55;;
27706;SDS011;36332;51.384;0.040;2024-01-11T03:54:12;29.92;;;12.82;;
27706;SDS011;36332;51.384;0.040;2024-01-11T03:56:41;37.50;;;14.05;;
27706;SDS011;36332;51.384;0.040;2024-01-11T03:59:22;34.75;;;14.95;;
27706;SDS011;36332;51.384;0.040;2024-01-11T04:01:51;37.53;;;14.32;;
27706;SDS011;36332;51.384;0.040;2024-01-11T04:04:20;37.38;;;14.38;;
27706;SDS011;36332;51.384;0.040;2024-01-11T04:12:47;31.40;;;14.50;;
27706;SDS011;36332;51.384;0.040;2024-01-11T04:15:20;34.63;;;14.88;;
27706;SDS011;36332;51.384;0.040;2024-01-11T04:17:51;45.65;;;13.50;;
27706;SDS011;36332;51.384;0.040;2024-01-11T04:20:21;34.00;;;13.90;;
27706;SDS011;36332;51.384;0.040;2024-01-11T04:22:52;40.70;;;15.07;;
27706;SDS011;36332;51.384;0.040;2024-01-11T04:25:27;31.38;;;14.68;;
27706;SDS011;36332;51.384;0.040;2024-01-11T04:27:58;38.33;;;14.38;;
27706;SDS011;36332;51.384;0.040;2024-01-11T04:30:29;37.80;;;14.80;;
27706;SDS011;36332;51.384;0.040;2024-01-11T04:32:59;36.78;;;15.27;;
27706;SDS011;36332;51.384;0.040;2024-01-11T04:35:29;36.35;;;14.57;;
27706;SDS011;36332;51.384;0.040;2024-01-11T04:38:02;32.80;;;15.95;;
27706;SDS011;36332;51.384;0.040;2024-01-11T04:40:32;40.95;;;15.18;;
27706;SDS011;36332;51.384;0.040;2024-01-11T04:43:02;44.00;;;15.40;;
27706;SDS011;36332;51.384;0.040;2024-01-11T04:45:37;32.95;;;13.73;;
27706;SDS011;36332;51.384;0.040;2024-01-11T04:48:10;37.70;;;15.27;;
27706;SDS011;36332;51.384;0.040;2024-01-11T04:50:41;39.20;;;16.90;;
27706;SDS011;36332;51.384;0.040;2024-01-11T04:53:21;42.97;;;16.70;;
27706;SDS011;36332;51.384;0.040;2024-01-11T04:55:50;50.88;;;17.08;;
27706;SDS011;36332;51.384;0.040;2024-01-11T04:58:21;39.85;;;16.77;;
27706;SDS011;36332;51.384;0.040;2024-01-11T05:00:50;42.45;;;16.60;;
27706;SDS011;36332;51.384;0.040;2024-01-11T05:03:25;60.13;;;16.75;;
27706;SDS011;36332;51.384;0.040;2024-01-11T05:05:59;29.20;;;12.80;;
27706;SDS011;36332;51.384;0.040;2024-01-11T05:08:35;43.92;;;16.80;;
27706;SDS011;36332;51.384;0.040;2024-01-11T05:11:24;43.85;;;16.13;;
27706;SDS011;36332;51.384;0.040;2024-01-11T05:16:32;42.00;;;15.98;;
27706;SDS011;36332;51.384;0.040;2024-01-11T05:19:03;36.40;;;16.40;;
27706;SDS011;36332;51.384;0.040;2024-01-11T05:21:32;39.30;;;17.00;;
27706;SDS011;36332;51.384;0.040;2024-01-11T05:24:01;39.88;;;17.05;;
27706;SDS011;36332;51.384;0.040;2024-01-11T05:26:29;37.03;;;15.45;;
27706;SDS011;36332;51.384;0.040;2024-01-11T05:28:58;44.03;;;17.08;;
27706;SDS011;36332;51.384;0.040;2024-01-11T05:31:27;34.92;;;15.65;;
27706;SDS011;36332;51.384;0.040;2024-01-11T05:33:57;39.20;;;15.68;;
27706;SDS011;36332;51.384;0.040;2024-01-11T05:36:31;37.60;;;16.83;;
27706;SDS011;36332;51.384;0.040;2024-01-11T05:39:00;32.95;;;16.00;;
27706;SDS011;36332;51.384;0.040;2024-01-11T05:41:30;42.03;;;16.52;;
27706;SDS011;36332;51.384;0.040;2024-01-11T05:43:58;44.95;;;17.75;;
27706;SDS011;36332;51.384;0.040;2024-01-11T05:46:30;41.00;;;16.23;;
27706;SDS011;36332;51.384;0.040;2024-01-11T05:49:00;39.03;;;16.73;;
27706;SDS011;36332;51.384;0.040;2024-01-11T05:51:28;35.67;;;16.05;;
27706;SDS011;36332;51.384;0.040;2024-01-11T05:53:56;35.78;;;16.55;;
27706;SDS011;36332;51.384;0.040;2024-01-11T05:56:24;41.28;;;17.55;;
27706;SDS011;36332;51.384;0.040;2024-01-11T05:58:52;40.42;;;17.08;;
27706;SDS011;36332;51.384;0.040;2024-01-11T06:01:21;39.60;;;15.80;;
27706;SDS011;36332;51.384;0.040;2024-01-11T06:03:49;44.83;;;17.13;;
27706;SDS011;36332;51.384;0.040;2024-01-11T06:06:19;40.83;;;16.15;;
27706;SDS011;36332;51.384;0.040;2024-01-11T06:08:48;42.03;;;17.98;;
27706;SDS011;36332;51.384;0.040;2024-01-11T06:11:16;44.58;;;18.30;;
27706;SDS011;36332;51.384;0.040;2024-01-11T06:13:45;48.33;;;16.95;;
27706;SDS011;36332;51.384;0.040;2024-01-11T06:16:14;42.03;;;16.95;;
27706;SDS011;36332;51.384;0.040;2024-01-11T06:18:44;52.00;;;19.85;;
27706;SDS011;36332;51.384;0.040;2024-01-11T06:21:13;33.92;;;15.93;;
27706;SDS011;36332;51.384;0.040;2024-01-11T06:23:45;43.20;;;17.77;;
27706;SDS011;36332;51.384;0.040;2024-01-11T06:26:14;47.17;;;18.83;;
27706;SDS011;36332;51.384;0.040;2024-01-11T06:28:43;37.45;;;15.88;;
27706;SDS011;36332;51.384;0.040;2024-01-11T06:31:11;38.90;;;16.27;;
27706;SDS011;36332;51.384;0.040;2024-01-11T06:33:40;41.65;;;17.77;;
27706;SDS011;36332;51.384;0.040;2024-01-11T06:36:08;45.72;;;18.45;;
27706;SDS011;36332;51.384;0.040;2024-01-11T06:38:38;44.25;;;17.13;;
27706;SDS011;36332;51.384;0.040;2024-01-11T06:41:07;42.03;;;17.92;;
27706;SDS011;36332;51.384;0.040;2024-01-11T06:43:35;40.70;;;17.17;;
27706;SDS011;36332;51.384;0.040;2024-01-11T06:46:04;42.85;;;18.42;;
27706;SDS011;36332;51.384;0.040;2024-01-11T06:48:35;42.05;;;16.88;;
27706;SDS011;36332;51.384;0.040;2024-01-11T06:51:04;39.03;;;16.95;;
27706;SDS011;36332;51.384;0.040;2024-01-11T06:53:32;41.45;;;18.05;;
27706;SDS011;36332;51.384;0.040;2024-01-11T06:56:01;36.55;;;15.95;;
27706;SDS011;36332;51.384;0.040;2024-01-11T06:58:30;41.38;;;16.45;;
27706;SDS011;36332;51.384;0.040;2024-01-11T07:01:02;45.72;;;17.52;;
27706;SDS011;36332;51.384;0.040;2024-01-11T07:03:30;44.22;;;18.45;;
27706;SDS011;36332;51.384;0.040;2024-01-11T07:05:58;39.78;;;18.67;;
27706;SDS011;36332;51.384;0.040;2024-01-11T07:08:27;44.33;;;18.05;;
27706;SDS011;36332;51.384;0.040;2024-01-11T07:10:56;43.17;;;18.92;;
27706;SDS011;36332;51.384;0.040;2024-01-11T07:13:24;37.90;;;16.58;;
27706;SDS011;36332;51.384;0.040;2024-01-11T07:15:53;54.55;;;18.40;;
27706;SDS011;36332;51.384;0.040;2024-01-11T07:18:23;41.90;;;19.02;;
27706;SDS011;36332;51.384;0.040;2024-01-11T07:20:53;43.58;;;16.95;;
27706;SDS011;36332;51.384;0.040;2024-01-11T07:23:22;45.80;;;16.30;;
27706;SDS011;36332;51.384;0.040;2024-01-11T07:25:50;44.83;;;17.95;;
27706;SDS011;36332;51.384;0.040;2024-01-11T07:28:19;42.65;;;17.88;;
27706;SDS011;36332;51.384;0.040;2024-01-11T07:30:54;46.53;;;18.35;;
27706;SDS011;36332;51.384;0.040;2024-01-11T07:33:22;40.72;;;17.52;;
27706;SDS011;36332;51.384;0.040;2024-01-11T07:35:50;48.55;;;19.67;;
27706;SDS011;36332;51.384;0.040;2024-01-11T07:38:22;43.53;;;18.52;;
27706;SDS011;36332;51.384;0.040;2024-01-11T07:40:51;41.92;;;17.13;;
27706;SDS011;36332;51.384;0.040;2024-01-11T07:43:19;45.10;;;17.85;;
27706;SDS011;36332;51.384;0.040;2024-01-11T07:45:51;44.92;;;18.38;;
27706;SDS011;36332;51.384;0.040;2024-01-11T07:48:19;52.47;;;18.05;;
27706;SDS011;36332;51.384;0.040;2024-01-11T07:50:49;54.40;;;18.38;;
27706;SDS011;36332;51.384;0.040;2024-01-11T07:53:17;50.25;;;19.30;;
27706;SDS011;36332;51.384;0.040;2024-01-11T07:55:47;46.70;;;18.70;;
27706;SDS011;36332;51.384;0.040;2024-01-11T07:58:15;54.90;;;21.25;;
27706;SDS011;36332;51.384;0.040;2024-01-11T08:00:44;47.20;;;19.83;;
27706;SDS011;36332;51.384;0.040;2024-01-11T08:03:16;49.88;;;19.70;;
27706;SDS011;36332;51.384;0.040;2024-01-11T08:05:44;53.70;;;20.35;;
27706;SDS011;36332;51.384;0.040;2024-01-11T08:08:22;58.17;;;20.88;;
27706;SDS011;36332;51.384;0.040;2024-01-11T08:10:51;45.67;;;18.23;;
27706;SDS011;36332;51.384;0.040;2024-01-11T08:13:20;48.75;;;21.38;;
27706;SDS011;36332;51.384;0.040;2024-01-11T08:15:48;48.10;;;19.42;;
27706;SDS011;36332;51.384;0.040;2024-01-11T08:18:18;53.17;;;20.38;;
27706;SDS011;36332;51.384;0.040;2024-01-11T08:20:46;63.08;;;21.17;;
27706;SDS011;36332;51.384;0.040;2024-01-11T08:23:15;57.40;;;20.08;;
27706;SDS011;36332;51.384;0.040;2024-01-11T08:25:44;53.05;;;21.85;;
27706;SDS011;36332;51.384;0.040;2024-01-11T08:28:14;47.60;;;20.10;;
27706;SDS011;36332;51.384;0.040;2024-01-11T08:30:44;62.70;;;22.38;;
27706;SDS011;36332;51.384;0.040;2024-01-11T08:33:13;48.25;;;21.08;;
27706;SDS011;36332;51.384;0.040;2024-01-11T08:35:42;55.65;;;22.20;;
27706;SDS011;36332;51.384;0.040;2024-01-11T08:38:10;56.67;;;22.48;;
27706;SDS011;36332;51.384;0.040;2024-01-11T08:40:39;60.05;;;21.02;;
27706;SDS011;36332;51.384;0.040;2024-01-11T08:43:07;60.83;;;24.42;;
27706;SDS011;36332;51.384;0.040;2024-01-11T08:45:35;60.85;;;21.75;;
27706;SDS011;36332;51.384;0.040;2024-01-11T08:48:04;54.15;;;19.52;;
27706;SDS011;36332;51.384;0.040;2024-01-11T08:50:32;50.15;;;19.85;;
27706;SDS011;36332;51.384;0.040;2024-01-11T08:53:01;53.58;;;21.05;;
27706;SDS011;36332;51.384;0.040;2024-01-11T08:55:29;51.13;;;20.30;;
27706;SDS011;36332;51.384;0.040;2024-01-11T08:57:58;48.65;;;21.75;;
27706;SDS011;36332;51.384;0.040;2024-01-11T09:00:27;55.97;;;21.35;;
27706;SDS011;36332;51.384;0.040;2024-01-11T09:02:55;55.30;;;21.88;;
27706;SDS011;36332;51.384;0.040;2024-01-11T09:05:23;58.10;;;22.33;;
27706;SDS011;36332;51.384;0.040;2024-01-11T09:07:51;49.42;;;19.15;;
27706;SDS011;36332;51.384;0.040;2024-01-11T09:10:22;50.42;;;20.10;;
27706;SDS011;36332;51.384;0.040;2024-01-11T09:12:50;45.90;;;18.63;;
27706;SDS011;36332;51.384;0.040;2024-01-11T09:15:18;54.38;;;22.33;;
27706;SDS011;36332;51.384;0.040;2024-01-11T09:17:46;50.25;;;21.73;;
27706;SDS011;36332;51.384;0.040;2024-01-11T09:20:14;53.22;;;20.65;;
27706;SDS011;36332;51.384;0.040;2024-01-11T09:22:44;48.30;;;21.05;;
27706;SDS011;36332;51.384;0.040;2024-01-11T09:25:12;56.10;;;19.95;;
27706;SDS011;36332;51.384;0.040;2024-01-11T09:27:40;44.78;;;18.55;;
27706;SDS011;36332;51.384;0.040;2024-01-11T09:30:09;41.80;;;18.80;;
27706;SDS011;36332;51.384;0.040;2024-01-11T09:32:37;47.15;;;18.33;;
27706;SDS011;36332;51.384;0.040;2024-01-11T09:35:07;43.50;;;16.75;;
27706;SDS011;36332;51.384;0.040;2024-01-11T09:37:39;45.90;;;15.63;;
27706;SDS011;36332;51.384;0.040;2024-01-11T09:40:08;40.72;;;16.60;;
27706;SDS011;36332;51.384;0.040;2024-01-11T09:42:38;36.25;;;17.38;;
27706;SDS011;36332;51.384;0.040;2024-01-11T09:45:08;36.47;;;16.20;;
27706;SDS011;36332;51.384;0.040;2024-01-11T09:47:39;43.60;;;16.33;;
27706;SDS011;36332;51.384;0.040;2024-01-11T09:50:08;30.50;;;14.15;;
27706;SDS011;36332;51.384;0.040;2024-01-11T09:52:37;32.45;;;11.57;;
27706;SDS011;36332;51.384;0.040;2024-01-11T09:55:07;26.02;;;10.52;;
27706;SDS011;36332;51.384;0.040;2024-01-11T09:57:36;28.02;;;10.98;;
27706;SDS011;36332;51.384;0.040;2024-01-11T10:00:07;18.77;;;8.07;;
27706;SDS011;36332;51.384;0.040;2024-01-11T10:02:36;19.30;;;7.30;;
27706;SDS011;36332;51.384;0.040;2024-01-11T10:05:05;20.70;;;7.80;;
27706;SDS011;36332;51.384;0.040;2024-01-11T10:07:34;31.10;;;6.35;;
27706;SDS011;36332;51.384;0.040;2024-01-11T10:10:03;15.45;;;7.38;;
27706;SDS011;36332;51.384;0.040;2024-01-11T10:12:34;20.98;;;6.85;;
27706;SDS011;36332;51.384;0.040;2024-01-11T10:15:12;19.80;;;7.40;;
27706;SDS011;36332;51.384;0.040;2024-01-11T10:20:14;26.58;;;6.88;;
27706;SDS011;36332;51.384;0.040;2024-01-11T10:22:43;15.65;;;7.13;;
27706;SDS011;36332;51.384;0.040;2024-01-11T10:25:14;16.85;;;6.78;;
27706;SDS011;36332;51.384;0.040;2024-01-11T10:27:44;17.42;;;7.43;;
27706;SDS011;36332;51.384;0.040;2024-01-11T10:30:13;21.50;;;7.45;;
27706;SDS011;36332;51.384;0.040;2024-01-11T10:32:45;17.92;;;6.65;;
27706;SDS011;36332;51.384;0.040;2024-01-11T10:35:15;22.10;;;6.00;;
27706;SDS011;36332;51.384;0.040;2024-01-11T10:37:46;17.38;;;6.95;;
27706;SDS011;36332;51.384;0.040;2024-01-11T10:40:21;21.50;;;7.40;;
27706;SDS011;36332;51.384;0.040;2024-01-11T10:42:52;17.10;;;6.32;;
27706;SDS011;36332;51.384;0.040;2024-01-11T10:45:20;18.88;;;8.05;;
27706;SDS011;36332;51.384;0.040;2024-01-11T10:48:01;25.48;;;6.72;;
27706;SDS011;36332;51.384;0.040;2024-01-11T10:50:34;22.85;;;7.25;;
27706;SDS011;36332;51.384;0.040;2024-01-11T10:55:36;15.07;;;5.72;;
27706;SDS011;36332;51.384;0.040;2024-01-11T10:58:05;22.98;;;5.45;;
27706;SDS011;36332;51.384;0.040;2024-01-11T11:00:35;16.40;;;5.53;;
27706;SDS011;36332;51.384;0.040;2024-01-11T11:03:05;22.88;;;6.53;;
27706;SDS011;36332;51.384;0.040;2024-01-11T11:05:36;16.63;;;5.30;;
27706;SDS011;36332;51.384;0.040;2024-01-11T11:08:06;13.82;;;5.35;;
27706;SDS011;36332;51.384;0.040;2024-01-11T11:10:35;13.55;;;5.60;;
27706;SDS011;36332;51.384;0.040;2024-01-11T11:13:05;15.77;;;4.95;;
27706;SDS011;36332;51.384;0.040;2024-01-11T11:15:33;14.82;;;6.03;;
27706;SDS011;36332;51.384;0.040;2024-01-11T11:18:04;12.27;;;5.20;;
27706;SDS011;36332;51.384;0.040;2024-01-11T11:20:33;11.93;;;4.65;;
27706;SDS011;36332;51.384;0.040;2024-01-11T11:23:04;12.40;;;5.30;;
27706;SDS011;36332;51.384;0.040;2024-01-11T11:25:34;9.13;;;4.20;;
27706;SDS011;36332;51.384;0.040;2024-01-11T11:28:04;9.65;;;4.82;;
27706;SDS011;36332;51.384;0.040;2024-01-11T11:30:33;13.73;;;5.18;;
27706;SDS011;36332;51.384;0.040;2024-01-11T11:33:18;16.80;;;6.10;;
27706;SDS011;36332;51.384;0.040;2024-01-11T11:35:54;18.45;;;4.95;;
27706;SDS011;36332;51.384;0.040;2024-01-11T11:38:26;20.77;;;7.50;;
27706;SDS011;36332;51.384;0.040;2024-01-11T11:40:58;14.98;;;5.05;;
27706;SDS011;36332;51.384;0.040;2024-01-11T11:43:30;7.70;;;4.38;;
27706;SDS011;36332;51.384;0.040;2024-01-11T11:46:00;9.02;;;3.97;;
27706;SDS011;36332;51.384;0.040;2024-01-11T11:48:51;13.43;;;4.30;;
27706;SDS011;36332;51.384;0.040;2024-01-11T11:51:21;8.85;;;4.53;;
27706;SDS011;36332;51.384;0.040;2024-01-11T11:53:53;14.90;;;4.32;;
27706;SDS011;36332;51.384;0.040;2024-01-11T11:56:22;13.50;;;4.15;;
27706;SDS011;36332;51.384;0.040;2024-01-11T11:58:54;9.88;;;3.45;;
27706;SDS011;36332;51.384;0.040;2024-01-11T12:01:23;9.07;;;3.90;;
27706;SDS011;36332;51.384;0.040;2024-01-11T12:03:52;10.77;;;4.05;;
27706;SDS011;36332;51.384;0.040;2024-01-11T12:06:21;10.52;;;3.67;;
27706;SDS011;36332;51.384;0.040;2024-01-11T12:08:56;9.52;;;3.85;;
27706;SDS011;36332;51.384;0.040;2024-01-11T12:11:29;11.48;;;3.53;;
27706;SDS011;36332;51.384;0.040;2024-01-11T12:14:00;11.68;;;3.50;;
27706;SDS011;36332;51.384;0.040;2024-01-11T12:16:29;18.33;;;4.85;;
27706;SDS011;36332;51.384;0.040;2024-01-11T12:19:00;11.23;;;4.38;;
27706;SDS011;36332;51.384;0.040;2024-01-11T12:21:29;18.38;;;5.85;;
27706;SDS011;36332;51.384;0.040;2024-01-11T12:23:58;10.77;;;4.03;;
27706;SDS011;36332;51.384;0.040;2024-01-11T12:26:26;5.80;;;3.22;;
27706;SDS011;36332;51.384;0.040;2024-01-11T12:28:54;11.30;;;3.72;;
27706;SDS011;36332;51.384;0.040;2024-01-11T12:34:17;14.48;;;3.17;;
27706;SDS011;36332;51.384;0.040;2024-01-11T12:36:45;7.38;;;2.80;;
27706;SDS011;36332;51.384;0.040;2024-01-11T12:39:16;10.65;;;3.22;;
27706;SDS011;36332;51.384;0.040;2024-01-11T12:41:44;11.93;;;3.25;;
27706;SDS011;36332;51.384;0.040;2024-01-11T12:44:12;11.30;;;2.58;;
27706;SDS011;36332;51.384;0.040;2024-01-11T12:46:42;13.48;;;2.95;;
27706;SDS011;36332;51.384;0.040;2024-01-11T12:49:10;9.40;;;2.78;;
27706;SDS011;36332;51.384;0.040;2024-01-11T12:51:39;10.43;;;2.83;;
27706;SDS011;36332;51.384;0.040;2024-01-11T12:54:13;6.15;;;2.70;;
27706;SDS011;36332;51.384;0.040;2024-01-11T12:56:53;3.97;;;2.13;;
27706;SDS011;36332;51.384;0.040;2024-01-11T12:59:25;9.63;;;2.63;;
27706;SDS011;36332;51.384;0.040;2024-01-11T13:01:56;7.35;;;3.53;;
27706;SDS011;36332;51.384;0.040;2024-01-11T13:04:27;5.45;;;2.20;;
27706;SDS011;36332;51.384;0.040;2024-01-11T13:06:55;5.13;;;2.67;;
27706;SDS011;36332;51.384;0.040;2024-01-11T13:09:23;12.55;;;2.65;;
27706;SDS011;36332;51.384;0.040;2024-01-11T13:11:54;17.05;;;2.80;;
27706;SDS011;36332;51.384;0.040;2024-01-11T13:14:22;6.57;;;2.45;;
27706;SDS011;36332;51.384;0.040;2024-01-11T13:16:51;10.20;;;2.25;;
27706;SDS011;36332;51.384;0.040;2024-01-11T13:19:19;5.47;;;2.15;;
27706;SDS011;36332;51.384;0.040;2024-01-11T13:21:54;4.63;;;2.25;;
27706;SDS011;36332;51.384;0.040;2024-01-11T13:24:22;9.82;;;2.70;;
27706;SDS011;36332;51.384;0.040;2024-01-11T13:26:50;6.05;;;2.35;;
27706;SDS011;36332;51.384;0.040;2024-01-11T13:29:19;7.18;;;2.60;;
27706;SDS011;36332;51.384;0.040;2024-01-11T13:31:48;8.43;;;2.20;;
27706;SDS011;36332;51.384;0.040;2024-01-11T13:34:16;5.95;;;2.80;;
27706;SDS011;36332;51.384;0.040;2024-01-11T13:36:46;7.70;;;2.65;;
27706;SDS011;36332;51.384;0.040;2024-01-11T13:39:16;9.35;;;2.35;;
27706;SDS011;36332;51.384;0.040;2024-01-11T13:41:46;10.30;;;2.60;;
27706;SDS011;36332;51.384;0.040;2024-01-11T13:44:15;7.43;;;2.95;;
27706;SDS011;36332;51.384;0.040;2024-01-11T13:46:44;7.60;;;2.80;;
27706;SDS011;36332;51.384;0.040;2024-01-11T13:49:13;10.82;;;2.70;;
27706;SDS011;36332;51.384;0.040;2024-01-11T13:51:44;21.50;;;11.05;;
27706;SDS011;36332;51.384;0.040;2024-01-11T13:54:27;8.40;;;2.95;;
27706;SDS011;36332;51.384;0.040;2024-01-11T13:56:55;5.47;;;2.90;;
27706;SDS011;36332;51.384;0.040;2024-01-11T13:59:38;10.18;;;3.25;;
27706;SDS011;36332;51.384;0.040;2024-01-11T14:02:06;6.75;;;3.53;;
27706;SDS011;36332;51.384;0.040;2024-01-11T14:04:36;6.07;;;2.72;;
27706;SDS011;36332;51.384;0.040;2024-01-11T14:07:08;6.97;;;2.55;;
27706;SDS011;36332;51.384;0.040;2024-01-11T14:09:37;13.23;;;3.25;;
27706;SDS011;36332;51.384;0.040;2024-01-11T14:12:07;7.15;;;2.88;;
27706;SDS011;36332;51.384;0.040;2024-01-11T14:14:39;9.45;;;4.00;;
27706;SDS011;36332;51.384;0.040;2024-01-11T14:17:09;5.53;;;2.80;;
27706;SDS011;36332;51.384;0.040;2024-01-11T14:19:38;5.32;;;3.15;;
27706;SDS011;36332;51.384;0.040;2024-01-11T14:22:07;7.43;;;3.08;;
27706;SDS011;36332;51.384;0.040;2024-01-11T14:24:35;4.45;;;2.78;;
27706;SDS011;36332;51.384;0.040;2024-01-11T14:27:04;5.30;;;3.08;;
27706;SDS011;36332;51.384;0.040;2024-01-11T14:29:33;8.07;;;3.20;;
27706;SDS011;36332;51.384;0.040;2024-01-11T14:32:09;8.65;;;3.05;;
27706;SDS011;36332;51.384;0.040;2024-01-11T14:34:52;7.30;;;2.80;;
27706;SDS011;36332;51.384;0.040;2024-01-11T14:37:22;7.32;;;2.63;;
27706;SDS011;36332;51.384;0.040;2024-01-11T14:39:51;5.72;;;3.10;;
27706;SDS011;36332;51.384;0.040;2024-01-11T14:42:20;6.97;;;2.83;;
27706;SDS011;36332;51.384;0.040;2024-01-11T14:44:48;10.70;;;3.90;;
27706;SDS011;36332;51.384;0.040;2024-01-11T14:47:16;6.70;;;2.58;;
27706;SDS011;36332;51.384;0.040;2024-01-11T14:49:45;7.18;;;2.72;;
27706;SDS011;36332;51.384;0.040;2024-01-11T14:52:15;7.90;;;2.78;;
27706;SDS011;36332;51.384;0.040;2024-01-11T14:54:45;5.40;;;2.88;;
27706;SDS011;36332;51.384;0.040;2024-01-11T14:57:15;10.23;;;3.30;;
27706;SDS011;36332;51.384;0.040;2024-01-11T14:59:45;11.30;;;3.50;;
27706;SDS011;36332;51.384;0.040;2024-01-11T15:02:15;9.38;;;3.25;;
27706;SDS011;36332;51.384;0.040;2024-01-11T15:04:43;7.13;;;2.90;;
27706;SDS011;36332;51.384;0.040;2024-01-11T15:07:12;5.10;;;2.67;;
27706;SDS011;36332;51.384;0.040;2024-01-11T15:09:45;8.13;;;2.80;;
27706;SDS011;36332;51.384;0.040;2024-01-11T15:12:14;4.72;;;2.17;;
27706;SDS011;36332;51.384;0.040;2024-01-11T15:14:49;7.65;;;2.50;;
27706;SDS011;36332;51.384;0.040;2024-01-11T15:17:24;10.38;;;3.33;;
27706;SDS011;36332;51.384;0.040;2024-01-11T15:19:52;13.27;;;3.25;;
27706;SDS011;36332;51.384;0.040;2024-01-11T15:22:21;8.93;;;4.35;;
27706;SDS011;36332;51.384;0.040;2024-01-11T15:24:49;7.95;;;2.92;;
27706;SDS011;36332;51.384;0.040;2024-01-11T15:27:21;4.70;;;3.08;;
27706;SDS011;36332;51.384;0.040;2024-01-11T15:29:49;7.57;;;3.38;;
27706;SDS011;36332;51.384;0.040;2024-01-11T15:32:17;7.38;;;3.72;;
27706;SDS011;36332;51.384;0.040;2024-01-11T15:34:46;8.98;;;4.05;;
27706;SDS011;36332;51.384;0.040;2024-01-11T15:37:14;13.50;;;4.45;;
27706;SDS011;36332;51.384;0.040;2024-01-11T15:39:43;9.40;;;4.35;;
27706;SDS011;36332;51.384;0.040;2024-01-11T15:42:13;14.60;;;4.78;;
27706;SDS011;36332;51.384;0.040;2024-01-11T15:44:44;14.43;;;4.65;;
27706;SDS011;36332;51.384;0.040;2024-01-11T15:47:14;19.95;;;4.75;;
27706;SDS011;36332;51.384;0.040;2024-01-11T15:49:42;12.02;;;5.97;;
27706;SDS011;36332;51.384;0.040;2024-01-11T15:52:13;10.35;;;4.30;;
27706;SDS011;36332;51.384;0.040;2024-01-11T15:54:42;16.55;;;4.90;;
27706;SDS011;36332;51.384;0.040;2024-01-11T15:57:16;12.27;;;4.80;;
27706;SDS011;36332;51.384;0.040;2024-01-11T15:59:46;13.73;;;4.57;;
27706;SDS011;36332;51.384;0.040;2024-01-11T16:02:17;14.05;;;6.70;;
27706;SDS011;36332;51.384;0.040;2024-01-11T16:04:52;10.07;;;5.47;;
27706;SDS011;36332;51.384;0.040;2024-01-11T16:07:21;9.98;;;4.78;;
27706;SDS011;36332;51.384;0.040;2024-01-11T16:09:50;14.80;;;4.57;;
27706;SDS011;36332;51.384;0.040;2024-01-11T16:12:20;9.10;;;4.60;;
27706;SDS011;36332;51.384;0.040;2024-01-11T16:14:49;12.50;;;5.20;;
27706;SDS011;36332;51.384;0.040;2024-01-11T16:17:22;10.88;;;4.78;;
27706;SDS011;36332;51.384;0.040;2024-01-11T16:19:52;13.52;;;4.88;;
27706;SDS011;36332;51.384;0.040;2024-01-11T16:22:21;9.77;;;4.40;;
27706;SDS011;36332;51.384;0.040;2024-01-11T16:24:51;11.52;;;4.43;;
27706;SDS011;36332;51.384;0.040;2024-01-11T16:27:19;9.73;;;3.83;;
27706;SDS011;36332;51.384;0.040;2024-01-11T16:29:47;12.10;;;4.32;;
27706;SDS011;36332;51.384;0.040;2024-01-11T16:32:15;17.73;;;7.72;;
27706;SDS011;36332;51.384;0.040;2024-01-11T16:34:46;21.67;;;7.53;;